الصفحة الرئيسية
صور السواتل توقعات الطقس لمدة 10 يوممناخالطقس البحري أعاصير برق مطارأسئلة وأجوبة الرسائل الإخبارية نبذة
طقس : أوروبا أفريقيا أمريكا الشمالية أمريكا الجنوبية آسيا أستراليا-أوقيانوسيا أخرى
لغات جهة اتصال

مدينة همدان, إيران

دائرة عرض: 34-52-05N, خط طول: 048-33-08E, ارتفاع: 1757 متر


METAR: OIHH 180800Z 27004KT 5000 DU FEW040 15/M03 Q1019
TAF: مفقودة

زمن: 13:13 (08:43 UTC)

مراقبة الطقس الحالي

تاريخ ووقت الإصدار 43 دقيقة قبل الساعة 08:00UTC
ريح 4 عقدة من الغرب
درجة الحرارة 15°درجة مئوية
الرطوبة 29%
ضغط 1019 hPa
الرؤية: 5000 متر
غيوم قليلة على ارتفاع 4000 قدم
غبار

تغيير وحدة
المعلومات الواردة في هذا الموقع يخضع لـإخلاء مسؤولية
طقس : أوروبا أفريقيا أمريكا الشمالية أمريكا الجنوبية آسيا أستراليا-أوقيانوسيا أخرى
صور السواتل توقعات الطقس لمدة 10 يوممناخالطقس البحري أعاصير برق مطارأسئلة وأجوبة لغات جهة اتصال الرسائل الإخبارية نبذة